sensor_id;sensor_type;location;lat;lon;timestamp;P1;durP1;ratioP1;P2;durP2;ratioP2
10872;SDS011;34586;53.616;10.032;2023-02-04T00:01:15;1.20;;;0.70;;
10872;SDS011;34586;53.616;10.032;2023-02-04T00:03:43;0.70;;;0.40;;
10872;SDS011;34586;53.616;10.032;2023-02-04T00:06:09;1.27;;;0.63;;
10872;SDS011;34586;53.616;10.032;2023-02-04T00:08:34;1.20;;;0.50;;
10872;SDS011;34586;53.616;10.032;2023-02-04T00:11:01;1.37;;;0.60;;
10872;SDS011;34586;53.616;10.032;2023-02-04T00:13:28;1.13;;;0.50;;
10872;SDS011;34586;53.616;10.032;2023-02-04T00:15:56;2.17;;;0.73;;
10872;SDS011;34586;53.616;10.032;2023-02-04T00:18:23;1.20;;;0.70;;
10872;SDS011;34586;53.616;10.032;2023-02-04T00:20:48;1.23;;;0.43;;
10872;SDS011;34586;53.616;10.032;2023-02-04T00:23:14;2.00;;;0.60;;
10872;SDS011;34586;53.616;10.032;2023-02-04T00:25:41;2.70;;;0.60;;
10872;SDS011;34586;53.616;10.032;2023-02-04T00:28:06;2.23;;;0.60;;
10872;SDS011;34586;53.616;10.032;2023-02-04T00:30:32;1.00;;;0.60;;
10872;SDS011;34586;53.616;10.032;2023-02-04T00:32:57;1.70;;;0.80;;
10872;SDS011;34586;53.616;10.032;2023-02-04T00:35:24;0.67;;;0.63;;
10872;SDS011;34586;53.616;10.032;2023-02-04T00:37:50;1.10;;;0.70;;
10872;SDS011;34586;53.616;10.032;2023-02-04T00:40:16;0.87;;;0.67;;
10872;SDS011;34586;53.616;10.032;2023-02-04T00:42:42;1.13;;;0.90;;
10872;SDS011;34586;53.616;10.032;2023-02-04T00:45:08;1.90;;;0.80;;
10872;SDS011;34586;53.616;10.032;2023-02-04T00:47:34;1.70;;;0.80;;
10872;SDS011;34586;53.616;10.032;2023-02-04T00:50:00;3.43;;;0.80;;
10872;SDS011;34586;53.616;10.032;2023-02-04T00:52:25;0.93;;;0.87;;
10872;SDS011;34586;53.616;10.032;2023-02-04T00:54:51;2.03;;;1.07;;
10872;SDS011;34586;53.616;10.032;2023-02-04T00:57:18;1.60;;;1.00;;
10872;SDS011;34586;53.616;10.032;2023-02-04T00:59:44;2.73;;;1.07;;
10872;SDS011;34586;53.616;10.032;2023-02-04T01:02:09;3.33;;;1.17;;
10872;SDS011;34586;53.616;10.032;2023-02-04T01:04:36;1.60;;;0.80;;
10872;SDS011;34586;53.616;10.032;2023-02-04T01:07:02;1.50;;;0.90;;
10872;SDS011;34586;53.616;10.032;2023-02-04T01:09:28;1.43;;;0.90;;
10872;SDS011;34586;53.616;10.032;2023-02-04T01:11:54;1.83;;;0.60;;
10872;SDS011;34586;53.616;10.032;2023-02-04T01:14:19;2.00;;;0.87;;
10872;SDS011;34586;53.616;10.032;2023-02-04T01:16:45;2.30;;;1.03;;
10872;SDS011;34586;53.616;10.032;2023-02-04T01:19:10;0.80;;;0.80;;
10872;SDS011;34586;53.616;10.032;2023-02-04T01:21:36;1.80;;;0.90;;
10872;SDS011;34586;53.616;10.032;2023-02-04T01:24:02;3.60;;;1.17;;
10872;SDS011;34586;53.616;10.032;2023-02-04T01:26:29;4.53;;;0.90;;
10872;SDS011;34586;53.616;10.032;2023-02-04T01:28:55;3.33;;;1.57;;
10872;SDS011;34586;53.616;10.032;2023-02-04T01:31:20;4.50;;;1.10;;
10872;SDS011;34586;53.616;10.032;2023-02-04T01:33:46;3.20;;;1.13;;
10872;SDS011;34586;53.616;10.032;2023-02-04T01:36:11;2.63;;;1.00;;
10872;SDS011;34586;53.616;10.032;2023-02-04T01:38:37;2.40;;;1.10;;
10872;SDS011;34586;53.616;10.032;2023-02-04T01:41:03;1.70;;;0.80;;
10872;SDS011;34586;53.616;10.032;2023-02-04T01:43:29;3.47;;;1.33;;
10872;SDS011;34586;53.616;10.032;2023-02-04T01:45:55;2.93;;;1.00;;
10872;SDS011;34586;53.616;10.032;2023-02-04T01:48:21;2.30;;;1.00;;
10872;SDS011;34586;53.616;10.032;2023-02-04T01:50:48;1.87;;;1.00;;
10872;SDS011;34586;53.616;10.032;2023-02-04T01:53:17;1.67;;;0.90;;
10872;SDS011;34586;53.616;10.032;2023-02-04T01:55:46;2.20;;;0.97;;
10872;SDS011;34586;53.616;10.032;2023-02-04T01:58:13;2.77;;;1.07;;
10872;SDS011;34586;53.616;10.032;2023-02-04T02:00:39;1.90;;;1.20;;
10872;SDS011;34586;53.616;10.032;2023-02-04T02:03:05;1.33;;;0.70;;
10872;SDS011;34586;53.616;10.032;2023-02-04T02:05:36;1.33;;;0.87;;
10872;SDS011;34586;53.616;10.032;2023-02-04T02:08:15;2.13;;;1.20;;
10872;SDS011;34586;53.616;10.032;2023-02-04T02:10:43;1.47;;;1.20;;
10872;SDS011;34586;53.616;10.032;2023-02-04T02:13:11;3.03;;;1.03;;
10872;SDS011;34586;53.616;10.032;2023-02-04T02:15:40;1.00;;;0.90;;
10872;SDS011;34586;53.616;10.032;2023-02-04T02:18:06;1.30;;;0.80;;
10872;SDS011;34586;53.616;10.032;2023-02-04T02:20:32;2.67;;;1.37;;
10872;SDS011;34586;53.616;10.032;2023-02-04T02:25:50;1.17;;;0.90;;
10872;SDS011;34586;53.616;10.032;2023-02-04T02:28:16;1.00;;;1.00;;
10872;SDS011;34586;53.616;10.032;2023-02-04T02:30:44;2.10;;;1.07;;
10872;SDS011;34586;53.616;10.032;2023-02-04T02:33:13;1.93;;;1.07;;
10872;SDS011;34586;53.616;10.032;2023-02-04T02:35:41;2.40;;;1.20;;
10872;SDS011;34586;53.616;10.032;2023-02-04T02:38:12;1.30;;;1.20;;
10872;SDS011;34586;53.616;10.032;2023-02-04T02:40:39;6.17;;;3.50;;
10872;SDS011;34586;53.616;10.032;2023-02-04T02:43:05;4.67;;;2.90;;
10872;SDS011;34586;53.616;10.032;2023-02-04T02:45:31;1.70;;;1.40;;
10872;SDS011;34586;53.616;10.032;2023-02-04T02:47:59;4.43;;;1.47;;
10872;SDS011;34586;53.616;10.032;2023-02-04T02:50:30;1.60;;;1.30;;
10872;SDS011;34586;53.616;10.032;2023-02-04T02:52:57;2.30;;;1.60;;
10872;SDS011;34586;53.616;10.032;2023-02-04T02:55:23;3.30;;;1.60;;
10872;SDS011;34586;53.616;10.032;2023-02-04T02:57:50;1.50;;;1.40;;
10872;SDS011;34586;53.616;10.032;2023-02-04T03:00:27;3.30;;;1.37;;
10872;SDS011;34586;53.616;10.032;2023-02-04T03:05:41;2.70;;;1.40;;
10872;SDS011;34586;53.616;10.032;2023-02-04T03:08:10;2.40;;;1.57;;
10872;SDS011;34586;53.616;10.032;2023-02-04T03:10:38;2.60;;;1.43;;
10872;SDS011;34586;53.616;10.032;2023-02-04T03:13:04;1.83;;;1.50;;
10872;SDS011;34586;53.616;10.032;2023-02-04T03:15:30;2.53;;;1.50;;
10872;SDS011;34586;53.616;10.032;2023-02-04T03:17:56;1.80;;;1.70;;
10872;SDS011;34586;53.616;10.032;2023-02-04T03:20:23;1.93;;;1.30;;
10872;SDS011;34586;53.616;10.032;2023-02-04T03:22:50;4.80;;;1.50;;
10872;SDS011;34586;53.616;10.032;2023-02-04T03:25:17;2.87;;;1.40;;
10872;SDS011;34586;53.616;10.032;2023-02-04T03:27:44;2.27;;;1.93;;
10872;SDS011;34586;53.616;10.032;2023-02-04T03:30:10;2.67;;;1.77;;
10872;SDS011;34586;53.616;10.032;2023-02-04T03:32:37;2.80;;;1.80;;
10872;SDS011;34586;53.616;10.032;2023-02-04T03:35:03;3.37;;;1.77;;
10872;SDS011;34586;53.616;10.032;2023-02-04T03:37:28;2.10;;;1.90;;
10872;SDS011;34586;53.616;10.032;2023-02-04T03:39:54;2.47;;;1.60;;
10872;SDS011;34586;53.616;10.032;2023-02-04T03:42:20;2.20;;;1.40;;
10872;SDS011;34586;53.616;10.032;2023-02-04T03:44:45;2.90;;;1.33;;
10872;SDS011;34586;53.616;10.032;2023-02-04T03:47:12;2.67;;;1.73;;
10872;SDS011;34586;53.616;10.032;2023-02-04T03:49:40;1.70;;;1.50;;
10872;SDS011;34586;53.616;10.032;2023-02-04T03:52:06;2.00;;;1.53;;
10872;SDS011;34586;53.616;10.032;2023-02-04T03:54:31;1.93;;;1.70;;
10872;SDS011;34586;53.616;10.032;2023-02-04T03:56:57;3.67;;;1.50;;
10872;SDS011;34586;53.616;10.032;2023-02-04T03:59:22;2.33;;;1.80;;
10872;SDS011;34586;53.616;10.032;2023-02-04T04:01:48;1.77;;;1.67;;
10872;SDS011;34586;53.616;10.032;2023-02-04T04:04:14;1.83;;;1.70;;
10872;SDS011;34586;53.616;10.032;2023-02-04T04:06:40;4.17;;;1.97;;
10872;SDS011;34586;53.616;10.032;2023-02-04T04:09:06;3.20;;;1.80;;
10872;SDS011;34586;53.616;10.032;2023-02-04T04:11:31;3.67;;;1.63;;
10872;SDS011;34586;53.616;10.032;2023-02-04T04:13:57;4.00;;;1.83;;
10872;SDS011;34586;53.616;10.032;2023-02-04T04:16:23;2.87;;;2.07;;
10872;SDS011;34586;53.616;10.032;2023-02-04T04:18:48;3.60;;;1.77;;
10872;SDS011;34586;53.616;10.032;2023-02-04T04:21:14;2.43;;;1.70;;
10872;SDS011;34586;53.616;10.032;2023-02-04T04:23:41;2.83;;;1.70;;
10872;SDS011;34586;53.616;10.032;2023-02-04T04:26:06;4.60;;;1.60;;
10872;SDS011;34586;53.616;10.032;2023-02-04T04:28:32;1.83;;;1.73;;
10872;SDS011;34586;53.616;10.032;2023-02-04T04:30:57;2.03;;;1.70;;
10872;SDS011;34586;53.616;10.032;2023-02-04T04:33:23;2.27;;;1.60;;
10872;SDS011;34586;53.616;10.032;2023-02-04T04:35:50;2.77;;;1.90;;
10872;SDS011;34586;53.616;10.032;2023-02-04T04:38:16;1.93;;;1.70;;
10872;SDS011;34586;53.616;10.032;2023-02-04T04:40:41;2.30;;;2.10;;
10872;SDS011;34586;53.616;10.032;2023-02-04T04:43:07;3.13;;;2.27;;
10872;SDS011;34586;53.616;10.032;2023-02-04T04:45:32;2.27;;;1.90;;
10872;SDS011;34586;53.616;10.032;2023-02-04T04:47:58;2.40;;;2.20;;
10872;SDS011;34586;53.616;10.032;2023-02-04T04:50:24;3.73;;;2.10;;
10872;SDS011;34586;53.616;10.032;2023-02-04T04:52:50;1.80;;;1.60;;
10872;SDS011;34586;53.616;10.032;2023-02-04T04:55:16;3.17;;;1.80;;
10872;SDS011;34586;53.616;10.032;2023-02-04T04:57:43;2.93;;;2.10;;
10872;SDS011;34586;53.616;10.032;2023-02-04T05:00:10;1.77;;;1.67;;
10872;SDS011;34586;53.616;10.032;2023-02-04T05:02:41;2.20;;;1.70;;
10872;SDS011;34586;53.616;10.032;2023-02-04T05:05:08;2.97;;;2.00;;
10872;SDS011;34586;53.616;10.032;2023-02-04T05:07:35;3.63;;;1.80;;
10872;SDS011;34586;53.616;10.032;2023-02-04T05:10:01;3.00;;;1.80;;
10872;SDS011;34586;53.616;10.032;2023-02-04T05:12:27;2.23;;;1.97;;
10872;SDS011;34586;53.616;10.032;2023-02-04T05:14:53;2.00;;;1.67;;
10872;SDS011;34586;53.616;10.032;2023-02-04T05:17:20;3.50;;;1.70;;
10872;SDS011;34586;53.616;10.032;2023-02-04T05:19:45;2.23;;;1.63;;
10872;SDS011;34586;53.616;10.032;2023-02-04T05:22:11;1.90;;;1.80;;
10872;SDS011;34586;53.616;10.032;2023-02-04T05:24:37;3.10;;;1.83;;
10872;SDS011;34586;53.616;10.032;2023-02-04T05:27:02;3.47;;;1.80;;
10872;SDS011;34586;53.616;10.032;2023-02-04T05:29:29;1.97;;;1.63;;
10872;SDS011;34586;53.616;10.032;2023-02-04T05:31:55;1.90;;;1.80;;
10872;SDS011;34586;53.616;10.032;2023-02-04T05:34:20;1.73;;;1.63;;
10872;SDS011;34586;53.616;10.032;2023-02-04T05:36:47;2.30;;;1.80;;
10872;SDS011;34586;53.616;10.032;2023-02-04T05:39:15;2.53;;;1.83;;
10872;SDS011;34586;53.616;10.032;2023-02-04T05:41:40;1.73;;;1.63;;
10872;SDS011;34586;53.616;10.032;2023-02-04T05:44:06;1.90;;;1.80;;
10872;SDS011;34586;53.616;10.032;2023-02-04T05:46:32;1.97;;;1.87;;
10872;SDS011;34586;53.616;10.032;2023-02-04T05:48:57;3.37;;;1.63;;
10872;SDS011;34586;53.616;10.032;2023-02-04T05:51:23;3.63;;;2.40;;
10872;SDS011;34586;53.616;10.032;2023-02-04T05:53:49;1.87;;;1.63;;
10872;SDS011;34586;53.616;10.032;2023-02-04T05:56:16;1.83;;;1.73;;
10872;SDS011;34586;53.616;10.032;2023-02-04T05:58:42;2.70;;;2.20;;
10872;SDS011;34586;53.616;10.032;2023-02-04T06:01:08;2.87;;;2.30;;
10872;SDS011;34586;53.616;10.032;2023-02-04T06:03:33;3.30;;;2.30;;
10872;SDS011;34586;53.616;10.032;2023-02-04T06:05:59;3.83;;;2.17;;
10872;SDS011;34586;53.616;10.032;2023-02-04T06:08:26;2.77;;;2.00;;
10872;SDS011;34586;53.616;10.032;2023-02-04T06:10:52;3.07;;;2.80;;
10872;SDS011;34586;53.616;10.032;2023-02-04T06:13:17;4.17;;;2.83;;
10872;SDS011;34586;53.616;10.032;2023-02-04T06:15:43;3.33;;;2.80;;
10872;SDS011;34586;53.616;10.032;2023-02-04T06:18:08;2.67;;;2.47;;
10872;SDS011;34586;53.616;10.032;2023-02-04T06:20:34;3.43;;;2.50;;
10872;SDS011;34586;53.616;10.032;2023-02-04T06:23:00;4.33;;;2.97;;
10872;SDS011;34586;53.616;10.032;2023-02-04T06:25:25;4.47;;;3.10;;
10872;SDS011;34586;53.616;10.032;2023-02-04T06:27:51;2.77;;;2.57;;
10872;SDS011;34586;53.616;10.032;2023-02-04T06:30:17;2.90;;;2.20;;
10872;SDS011;34586;53.616;10.032;2023-02-04T06:32:43;4.30;;;2.33;;
10872;SDS011;34586;53.616;10.032;2023-02-04T06:35:11;2.83;;;2.13;;
10872;SDS011;34586;53.616;10.032;2023-02-04T06:37:39;2.63;;;1.83;;
10872;SDS011;34586;53.616;10.032;2023-02-04T06:40:04;2.83;;;2.30;;
10872;SDS011;34586;53.616;10.032;2023-02-04T06:42:30;2.10;;;1.90;;
10872;SDS011;34586;53.616;10.032;2023-02-04T06:44:56;3.17;;;2.30;;
10872;SDS011;34586;53.616;10.032;2023-02-04T06:47:24;2.27;;;2.17;;
10872;SDS011;34586;53.616;10.032;2023-02-04T06:49:49;2.40;;;2.00;;
10872;SDS011;34586;53.616;10.032;2023-02-04T06:52:15;2.47;;;2.23;;
10872;SDS011;34586;53.616;10.032;2023-02-04T06:54:41;2.70;;;2.30;;
10872;SDS011;34586;53.616;10.032;2023-02-04T06:57:06;3.67;;;2.40;;
10872;SDS011;34586;53.616;10.032;2023-02-04T06:59:34;2.33;;;2.00;;
10872;SDS011;34586;53.616;10.032;2023-02-04T07:02:06;3.73;;;2.03;;
10872;SDS011;34586;53.616;10.032;2023-02-04T07:04:33;2.27;;;1.90;;
10872;SDS011;34586;53.616;10.032;2023-02-04T07:06:59;2.50;;;2.20;;
10872;SDS011;34586;53.616;10.032;2023-02-04T07:09:25;2.70;;;2.23;;
10872;SDS011;34586;53.616;10.032;2023-02-04T07:11:55;3.33;;;2.40;;
10872;SDS011;34586;53.616;10.032;2023-02-04T07:14:20;3.87;;;2.10;;
10872;SDS011;34586;53.616;10.032;2023-02-04T07:16:47;3.73;;;2.10;;
10872;SDS011;34586;53.616;10.032;2023-02-04T07:19:13;3.00;;;2.23;;
10872;SDS011;34586;53.616;10.032;2023-02-04T07:21:38;4.73;;;2.60;;
10872;SDS011;34586;53.616;10.032;2023-02-04T07:24:04;3.63;;;2.70;;
10872;SDS011;34586;53.616;10.032;2023-02-04T07:26:29;3.67;;;2.30;;
10872;SDS011;34586;53.616;10.032;2023-02-04T07:28:55;3.77;;;2.47;;
10872;SDS011;34586;53.616;10.032;2023-02-04T07:31:21;3.97;;;2.57;;
10872;SDS011;34586;53.616;10.032;2023-02-04T07:33:46;2.73;;;2.30;;
10872;SDS011;34586;53.616;10.032;2023-02-04T07:36:12;3.83;;;2.30;;
10872;SDS011;34586;53.616;10.032;2023-02-04T07:38:38;2.37;;;2.17;;
10872;SDS011;34586;53.616;10.032;2023-02-04T07:41:04;3.93;;;2.37;;
10872;SDS011;34586;53.616;10.032;2023-02-04T07:43:30;3.93;;;2.53;;
10872;SDS011;34586;53.616;10.032;2023-02-04T07:45:55;2.57;;;2.37;;
10872;SDS011;34586;53.616;10.032;2023-02-04T07:48:21;2.50;;;2.30;;
10872;SDS011;34586;53.616;10.032;2023-02-04T07:50:47;2.40;;;2.20;;
10872;SDS011;34586;53.616;10.032;2023-02-04T07:53:12;3.07;;;2.17;;
10872;SDS011;34586;53.616;10.032;2023-02-04T07:55:38;2.77;;;2.30;;
10872;SDS011;34586;53.616;10.032;2023-02-04T07:58:04;3.60;;;2.40;;
10872;SDS011;34586;53.616;10.032;2023-02-04T08:00:29;4.87;;;2.40;;
10872;SDS011;34586;53.616;10.032;2023-02-04T08:02:55;2.53;;;2.10;;
10872;SDS011;34586;53.616;10.032;2023-02-04T08:05:20;3.20;;;2.73;;
10872;SDS011;34586;53.616;10.032;2023-02-04T08:07:46;3.50;;;2.33;;
10872;SDS011;34586;53.616;10.032;2023-02-04T08:10:12;3.30;;;2.10;;
10872;SDS011;34586;53.616;10.032;2023-02-04T08:12:39;2.33;;;2.13;;
10872;SDS011;34586;53.616;10.032;2023-02-04T08:15:05;3.17;;;2.13;;
10872;SDS011;34586;53.616;10.032;2023-02-04T08:17:32;2.40;;;2.07;;
10872;SDS011;34586;53.616;10.032;2023-02-04T08:20:00;2.53;;;2.27;;
10872;SDS011;34586;53.616;10.032;2023-02-04T08:22:27;3.70;;;2.33;;
10872;SDS011;34586;53.616;10.032;2023-02-04T08:24:52;5.70;;;2.23;;
10872;SDS011;34586;53.616;10.032;2023-02-04T08:27:19;3.00;;;2.30;;
10872;SDS011;34586;53.616;10.032;2023-02-04T08:29:44;2.80;;;2.53;;
10872;SDS011;34586;53.616;10.032;2023-02-04T08:32:10;3.10;;;2.10;;
10872;SDS011;34586;53.616;10.032;2023-02-04T08:34:37;3.70;;;2.30;;
10872;SDS011;34586;53.616;10.032;2023-02-04T08:37:04;2.73;;;2.17;;
10872;SDS011;34586;53.616;10.032;2023-02-04T08:39:29;3.73;;;2.50;;
10872;SDS011;34586;53.616;10.032;2023-02-04T08:41:56;4.67;;;2.77;;
10872;SDS011;34586;53.616;10.032;2023-02-04T08:44:22;2.80;;;2.40;;
10872;SDS011;34586;53.616;10.032;2023-02-04T08:46:49;2.57;;;2.37;;
10872;SDS011;34586;53.616;10.032;2023-02-04T08:49:15;3.13;;;1.97;;
10872;SDS011;34586;53.616;10.032;2023-02-04T08:51:40;2.60;;;2.40;;
10872;SDS011;34586;53.616;10.032;2023-02-04T08:54:06;3.47;;;2.50;;
10872;SDS011;34586;53.616;10.032;2023-02-04T08:56:31;2.40;;;2.20;;
10872;SDS011;34586;53.616;10.032;2023-02-04T08:58:59;3.33;;;2.30;;
10872;SDS011;34586;53.616;10.032;2023-02-04T09:01:25;3.23;;;2.13;;
10872;SDS011;34586;53.616;10.032;2023-02-04T09:03:51;2.97;;;1.83;;
10872;SDS011;34586;53.616;10.032;2023-02-04T09:06:17;3.60;;;2.00;;
10872;SDS011;34586;53.616;10.032;2023-02-04T09:08:45;2.27;;;2.00;;
10872;SDS011;34586;53.616;10.032;2023-02-04T09:11:11;3.20;;;1.70;;
10872;SDS011;34586;53.616;10.032;2023-02-04T09:13:37;2.33;;;1.33;;
10872;SDS011;34586;53.616;10.032;2023-02-04T09:16:03;1.60;;;1.50;;
10872;SDS011;34586;53.616;10.032;2023-02-04T09:18:30;1.40;;;1.30;;
10872;SDS011;34586;53.616;10.032;2023-02-04T09:20:56;1.83;;;1.40;;
10872;SDS011;34586;53.616;10.032;2023-02-04T09:23:22;3.17;;;1.43;;
10872;SDS011;34586;53.616;10.032;2023-02-04T09:25:48;1.33;;;1.23;;
10872;SDS011;34586;53.616;10.032;2023-02-04T09:28:15;4.20;;;1.53;;
10872;SDS011;34586;53.616;10.032;2023-02-04T09:30:42;1.30;;;1.20;;
10872;SDS011;34586;53.616;10.032;2023-02-04T09:33:16;1.57;;;1.10;;
10872;SDS011;34586;53.616;10.032;2023-02-04T09:35:43;2.47;;;1.53;;
10872;SDS011;34586;53.616;10.032;2023-02-04T09:38:09;2.13;;;1.40;;
10872;SDS011;34586;53.616;10.032;2023-02-04T09:40:36;2.53;;;1.37;;
10872;SDS011;34586;53.616;10.032;2023-02-04T09:43:08;1.67;;;1.27;;
10872;SDS011;34586;53.616;10.032;2023-02-04T09:45:37;1.43;;;1.33;;
10872;SDS011;34586;53.616;10.032;2023-02-04T09:48:03;2.20;;;1.07;;
10872;SDS011;34586;53.616;10.032;2023-02-04T09:50:33;2.20;;;1.03;;
10872;SDS011;34586;53.616;10.032;2023-02-04T09:53:00;1.33;;;0.90;;
10872;SDS011;34586;53.616;10.032;2023-02-04T09:55:30;1.17;;;0.93;;
10872;SDS011;34586;53.616;10.032;2023-02-04T09:58:14;1.57;;;1.47;;
10872;SDS011;34586;53.616;10.032;2023-02-04T10:00:56;2.87;;;1.20;;
10872;SDS011;34586;53.616;10.032;2023-02-04T10:03:25;2.80;;;1.20;;
10872;SDS011;34586;53.616;10.032;2023-02-04T10:05:50;3.10;;;1.30;;
10872;SDS011;34586;53.616;10.032;2023-02-04T10:08:19;2.33;;;1.70;;
10872;SDS011;34586;53.616;10.032;2023-02-04T10:10:51;2.17;;;1.23;;
10872;SDS011;34586;53.616;10.032;2023-02-04T10:13:18;3.07;;;1.20;;
10872;SDS011;34586;53.616;10.032;2023-02-04T10:15:46;2.13;;;0.97;;
10872;SDS011;34586;53.616;10.032;2023-02-04T10:18:22;1.65;;;0.98;;
10872;SDS011;34586;53.616;10.032;2023-02-04T10:21:11;1.70;;;1.03;;
10872;SDS011;34586;53.616;10.032;2023-02-04T10:23:50;1.73;;;0.90;;
10872;SDS011;34586;53.616;10.032;2023-02-04T10:26:21;1.17;;;0.97;;
10872;SDS011;34586;53.616;10.032;2023-02-04T10:29:05;1.40;;;1.07;;
10872;SDS011;34586;53.616;10.032;2023-02-04T10:31:36;1.43;;;0.77;;
10872;SDS011;34586;53.616;10.032;2023-02-04T10:36:36;1.40;;;1.00;;
10872;SDS011;34586;53.616;10.032;2023-02-04T10:39:05;1.17;;;0.90;;
10872;SDS011;34586;53.616;10.032;2023-02-04T10:41:37;2.27;;;1.10;;
10872;SDS011;34586;53.616;10.032;2023-02-04T10:44:10;1.60;;;1.00;;
10872;SDS011;34586;53.616;10.032;2023-02-04T10:46:37;1.17;;;0.90;;
10872;SDS011;34586;53.616;10.032;2023-02-04T10:49:03;1.80;;;1.23;;
10872;SDS011;34586;53.616;10.032;2023-02-04T10:51:30;2.23;;;1.00;;
10872;SDS011;34586;53.616;10.032;2023-02-04T10:53:58;1.53;;;0.70;;
10872;SDS011;34586;53.616;10.032;2023-02-04T10:56:42;1.87;;;1.10;;
10872;SDS011;34586;53.616;10.032;2023-02-04T10:59:19;1.97;;;1.30;;
10872;SDS011;34586;53.616;10.032;2023-02-04T11:01:51;2.47;;;1.20;;
10872;SDS011;34586;53.616;10.032;2023-02-04T11:04:18;1.47;;;1.30;;
10872;SDS011;34586;53.616;10.032;2023-02-04T11:06:43;2.03;;;1.60;;
10872;SDS011;34586;53.616;10.032;2023-02-04T11:09:11;1.60;;;1.50;;
10872;SDS011;34586;53.616;10.032;2023-02-04T11:11:48;2.47;;;1.13;;
10872;SDS011;34586;53.616;10.032;2023-02-04T11:14:22;1.53;;;1.23;;
10872;SDS011;34586;53.616;10.032;2023-02-04T11:16:54;0.93;;;0.93;;
10872;SDS011;34586;53.616;10.032;2023-02-04T11:19:30;1.87;;;1.00;;
10872;SDS011;34586;53.616;10.032;2023-02-04T11:22:05;1.63;;;0.97;;
10872;SDS011;34586;53.616;10.032;2023-02-04T11:24:46;1.53;;;0.90;;
10872;SDS011;34586;53.616;10.032;2023-02-04T11:27:24;1.07;;;0.80;;
10872;SDS011;34586;53.616;10.032;2023-02-04T11:30:05;1.23;;;0.80;;
10872;SDS011;34586;53.616;10.032;2023-02-04T11:32:43;0.93;;;0.87;;
10872;SDS011;34586;53.616;10.032;2023-02-04T11:35:24;2.10;;;1.00;;
10872;SDS011;34586;53.616;10.032;2023-02-04T11:37:53;1.20;;;0.80;;
10872;SDS011;34586;53.616;10.032;2023-02-04T11:40:22;1.47;;;0.93;;
10872;SDS011;34586;53.616;10.032;2023-02-04T11:42:57;0.90;;;0.73;;
10872;SDS011;34586;53.616;10.032;2023-02-04T11:45:26;2.27;;;1.20;;
10872;SDS011;34586;53.616;10.032;2023-02-04T11:47:59;1.67;;;1.00;;
10872;SDS011;34586;53.616;10.032;2023-02-04T11:50:55;1.57;;;0.97;;
10872;SDS011;34586;53.616;10.032;2023-02-04T11:53:29;0.80;;;0.80;;
10872;SDS011;34586;53.616;10.032;2023-02-04T11:55:56;1.07;;;0.90;;
10872;SDS011;34586;53.616;10.032;2023-02-04T11:58:23;0.87;;;0.77;;
10872;SDS011;34586;53.616;10.032;2023-02-04T12:00:50;0.93;;;0.73;;
10872;SDS011;34586;53.616;10.032;2023-02-04T12:03:22;1.47;;;0.90;;
10872;SDS011;34586;53.616;10.032;2023-02-04T12:05:49;1.30;;;0.77;;
10872;SDS011;34586;53.616;10.032;2023-02-04T12:11:22;0.70;;;0.70;;
10872;SDS011;34586;53.616;10.032;2023-02-04T12:13:55;1.57;;;1.00;;
10872;SDS011;34586;53.616;10.032;2023-02-04T12:16:22;0.87;;;0.87;;
10872;SDS011;34586;53.616;10.032;2023-02-04T12:18:48;1.83;;;0.83;;
10872;SDS011;34586;53.616;10.032;2023-02-04T12:21:15;1.03;;;0.90;;
10872;SDS011;34586;53.616;10.032;2023-02-04T12:23:42;0.70;;;0.70;;
10872;SDS011;34586;53.616;10.032;2023-02-04T12:26:10;1.13;;;0.77;;
10872;SDS011;34586;53.616;10.032;2023-02-04T12:28:36;1.70;;;0.90;;
10872;SDS011;34586;53.616;10.032;2023-02-04T12:31:01;0.70;;;0.70;;
10872;SDS011;34586;53.616;10.032;2023-02-04T12:33:27;3.57;;;1.00;;
10872;SDS011;34586;53.616;10.032;2023-02-04T12:35:53;3.30;;;1.97;;
10872;SDS011;34586;53.616;10.032;2023-02-04T12:38:22;1.53;;;1.17;;
10872;SDS011;34586;53.616;10.032;2023-02-04T12:40:47;1.53;;;0.83;;
10872;SDS011;34586;53.616;10.032;2023-02-04T12:43:13;0.80;;;0.80;;
10872;SDS011;34586;53.616;10.032;2023-02-04T12:45:38;1.13;;;0.70;;
10872;SDS011;34586;53.616;10.032;2023-02-04T12:48:09;0.70;;;0.70;;
10872;SDS011;34586;53.616;10.032;2023-02-04T12:50:35;1.60;;;1.00;;
10872;SDS011;34586;53.616;10.032;2023-02-04T12:53:00;0.87;;;0.73;;
10872;SDS011;34586;53.616;10.032;2023-02-04T12:55:26;1.27;;;0.70;;
10872;SDS011;34586;53.616;10.032;2023-02-04T12:57:53;0.77;;;0.77;;
10872;SDS011;34586;53.616;10.032;2023-02-04T13:00:20;1.20;;;0.87;;
10872;SDS011;34586;53.616;10.032;2023-02-04T13:02:46;3.30;;;1.00;;
10872;SDS011;34586;53.616;10.032;2023-02-04T13:05:12;3.20;;;0.83;;
10872;SDS011;34586;53.616;10.032;2023-02-04T13:07:39;1.30;;;0.70;;
10872;SDS011;34586;53.616;10.032;2023-02-04T13:10:05;3.03;;;1.00;;
10872;SDS011;34586;53.616;10.032;2023-02-04T13:12:31;1.83;;;1.10;;
10872;SDS011;34586;53.616;10.032;2023-02-04T13:14:57;2.20;;;0.90;;
10872;SDS011;34586;53.616;10.032;2023-02-04T13:17:23;1.37;;;0.80;;
10872;SDS011;34586;53.616;10.032;2023-02-04T13:19:49;0.87;;;0.87;;
10872;SDS011;34586;53.616;10.032;2023-02-04T13:22:14;1.53;;;1.03;;
10872;SDS011;34586;53.616;10.032;2023-02-04T13:24:40;1.37;;;0.90;;
10872;SDS011;34586;53.616;10.032;2023-02-04T13:27:05;2.50;;;1.03;;
10872;SDS011;34586;53.616;10.032;2023-02-04T13:29:32;0.83;;;0.67;;
10872;SDS011;34586;53.616;10.032;2023-02-04T13:31:57;1.40;;;0.70;;
10872;SDS011;34586;53.616;10.032;2023-02-04T13:34:23;1.43;;;0.70;;
10872;SDS011;34586;53.616;10.032;2023-02-04T13:36:52;2.17;;;0.87;;
10872;SDS011;34586;53.616;10.032;2023-02-04T13:39:18;1.77;;;0.67;;
10872;SDS011;34586;53.616;10.032;2023-02-04T13:41:43;0.77;;;0.70;;
10872;SDS011;34586;53.616;10.032;2023-02-04T13:44:10;0.87;;;0.63;;
10872;SDS011;34586;53.616;10.032;2023-02-04T13:46:35;2.03;;;0.93;;
10872;SDS011;34586;53.616;10.032;2023-02-04T13:49:01;1.50;;;0.80;;
10872;SDS011;34586;53.616;10.032;2023-02-04T13:51:27;0.83;;;0.83;;
10872;SDS011;34586;53.616;10.032;2023-02-04T13:53:53;0.60;;;0.60;;
10872;SDS011;34586;53.616;10.032;2023-02-04T13:56:19;1.23;;;0.80;;
10872;SDS011;34586;53.616;10.032;2023-02-04T13:58:45;2.07;;;0.80;;
10872;SDS011;34586;53.616;10.032;2023-02-04T14:01:10;2.23;;;1.03;;
10872;SDS011;34586;53.616;10.032;2023-02-04T14:03:37;0.93;;;0.60;;
10872;SDS011;34586;53.616;10.032;2023-02-04T14:06:03;2.57;;;0.80;;
10872;SDS011;34586;53.616;10.032;2023-02-04T14:08:28;1.87;;;1.03;;
10872;SDS011;34586;53.616;10.032;2023-02-04T14:10:54;0.83;;;0.60;;
10872;SDS011;34586;53.616;10.032;2023-02-04T14:13:20;1.23;;;0.70;;
10872;SDS011;34586;53.616;10.032;2023-02-04T14:15:45;1.10;;;0.70;;
10872;SDS011;34586;53.616;10.032;2023-02-04T14:18:11;1.13;;;0.60;;
10872;SDS011;34586;53.616;10.032;2023-02-04T14:20:36;0.97;;;0.80;;
10872;SDS011;34586;53.616;10.032;2023-02-04T14:23:03;1.20;;;0.83;;
10872;SDS011;34586;53.616;10.032;2023-02-04T14:25:29;1.17;;;1.00;;
10872;SDS011;34586;53.616;10.032;2023-02-04T14:27:55;0.87;;;0.63;;
10872;SDS011;34586;53.616;10.032;2023-02-04T14:30:22;0.70;;;0.70;;
10872;SDS011;34586;53.616;10.032;2023-02-04T14:32:49;1.63;;;0.80;;
10872;SDS011;34586;53.616;10.032;2023-02-04T14:35:15;1.87;;;0.90;;
10872;SDS011;34586;53.616;10.032;2023-02-04T14:37:41;2.53;;;0.80;;
10872;SDS011;34586;53.616;10.032;2023-02-04T14:40:07;2.07;;;1.30;;
10872;SDS011;34586;53.616;10.032;2023-02-04T14:42:34;4.23;;;3.30;;
10872;SDS011;34586;53.616;10.032;2023-02-04T14:45:01;2.07;;;1.67;;